createdAt,value
2022-08-07T00:00:29.817Z,40.29
2022-08-07T00:03:08.718Z,40.56
2022-08-07T00:05:36.279Z,40.71
2022-08-07T00:08:04.753Z,40.14
2022-08-07T00:10:31.923Z,40.40
2022-08-07T00:13:02.227Z,40.78
2022-08-07T00:15:36.090Z,40.82
2022-08-07T00:18:05.738Z,40.34
2022-08-07T00:20:35.344Z,40.92
2022-08-07T00:23:02.621Z,40.96
2022-08-07T00:25:37.204Z,40.94
2022-08-07T00:28:08.497Z,40.81
2022-08-07T00:30:37.812Z,40.87
2022-08-07T00:33:04.993Z,40.96
2022-08-07T00:35:35.172Z,41.08
2022-08-07T00:38:03.841Z,40.64
2022-08-07T00:40:36.555Z,40.78
2022-08-07T00:44:01.496Z,41.16
2022-08-07T00:45:59.628Z,41.25
2022-08-07T00:48:30.943Z,40.84
2022-08-07T00:51:00.196Z,40.95
2022-08-07T00:53:27.433Z,41.38
2022-08-07T00:56:13.891Z,40.94
2022-08-07T00:58:42.779Z,41.13
2022-08-07T01:01:13.909Z,40.68
2022-08-07T01:03:56.440Z,40.77
2022-08-07T01:06:28.552Z,41.26
2022-08-07T01:08:58.297Z,41.26
2022-08-07T01:12:09.100Z,41.08
2022-08-07T01:14:12.770Z,41.20
2022-08-07T01:16:46.832Z,40.95
2022-08-07T01:19:18.785Z,41.30
2022-08-07T01:21:47.533Z,41.04
2022-08-07T01:24:14.590Z,41.33
2022-08-07T01:26:52.127Z,41.44
2022-08-07T01:29:23.263Z,41.04
2022-08-07T01:31:50.965Z,41.24
2022-08-07T01:34:18.107Z,41.15
2022-08-07T01:36:52.626Z,41.35
2022-08-07T01:39:40.664Z,41.00
2022-08-07T01:42:38.142Z,41.23
2022-08-07T01:45:05.070Z,41.33
2022-08-07T01:48:19.102Z,41.10
2022-08-07T01:50:29.064Z,40.77
2022-08-07T01:52:57.239Z,41.41
2022-08-07T01:55:29.900Z,41.08
2022-08-07T01:58:05.471Z,41.49
2022-08-07T02:00:34.220Z,41.20
2022-08-07T02:03:21.913Z,41.52
2022-08-07T02:06:08.919Z,41.48
2022-08-07T02:08:54.183Z,41.69
2022-08-07T02:12:02.705Z,41.62
2022-08-07T02:14:08.595Z,41.61
2022-08-07T02:16:36.314Z,41.33
2022-08-07T02:19:05.685Z,41.70
2022-08-07T02:21:56.191Z,41.59
2022-08-07T02:24:24.452Z,41.66
2022-08-07T02:26:51.408Z,41.24
2022-08-07T02:29:21.818Z,41.49
2022-08-07T02:31:48.899Z,41.49
2022-08-07T02:34:17.450Z,41.73
2022-08-07T02:36:45.294Z,41.32
2022-08-07T02:39:17.176Z,41.12
2022-08-07T02:42:00.596Z,41.83
2022-08-07T02:44:34.774Z,41.40
2022-08-07T02:47:03.922Z,41.17
2022-08-07T02:49:56.400Z,41.33
2022-08-07T02:52:21.641Z,41.41
2022-08-07T02:54:59.731Z,41.30
2022-08-07T02:57:28.731Z,41.77
2022-08-07T03:00:05.134Z,41.91
2022-08-07T03:02:41.990Z,41.41
2022-08-07T03:05:22.956Z,41.59
2022-08-07T03:08:04.794Z,41.66
2022-08-07T03:10:34.294Z,41.81
2022-08-07T03:13:07.927Z,41.23
2022-08-07T03:15:47.686Z,41.92
2022-08-07T03:18:34.207Z,41.88
2022-08-07T03:21:04.382Z,41.96
2022-08-07T03:23:33.693Z,41.86
2022-08-07T03:26:23.434Z,41.75
2022-08-07T03:28:51.544Z,41.59
2022-08-07T03:31:18.683Z,41.81
2022-08-07T03:33:54.961Z,41.68
2022-08-07T03:36:26.512Z,41.85
2022-08-07T03:38:55.809Z,41.79
2022-08-07T03:41:42.534Z,41.98
2022-08-07T03:44:10.880Z,41.85
2022-08-07T03:47:13.894Z,42.01
2022-08-07T03:49:30.060Z,41.88
2022-08-07T03:52:01.463Z,42.05
2022-08-07T03:54:35.770Z,41.87
2022-08-07T03:57:07.207Z,42.04
2022-08-07T03:59:34.701Z,41.94
2022-08-07T04:02:01.609Z,42.01
2022-08-07T04:04:28.749Z,41.84
2022-08-07T04:07:00.137Z,41.56
2022-08-07T04:09:44.879Z,41.64
2022-08-07T04:12:24.849Z,41.45
2022-08-07T04:14:55.080Z,41.64
2022-08-07T04:17:23.440Z,41.40
2022-08-07T04:20:11.981Z,41.76
2022-08-07T04:22:40.436Z,41.75
2022-08-07T04:25:22.584Z,41.53
2022-08-07T04:27:59.117Z,41.87
2022-08-07T04:30:39.368Z,41.66
2022-08-07T04:33:14.037Z,41.83
2022-08-07T04:35:44.468Z,41.72
2022-08-07T04:38:17.848Z,41.79
2022-08-07T04:40:52.945Z,41.89
2022-08-07T04:44:12.364Z,41.70
2022-08-07T04:46:59.562Z,41.32
2022-08-07T04:49:37.803Z,42.27
2022-08-07T04:52:25.156Z,42.00
2022-08-07T04:54:58.115Z,41.86
2022-08-07T04:58:13.161Z,41.65
2022-08-07T05:00:31.664Z,41.72
2022-08-07T05:03:17.251Z,41.60
2022-08-07T05:06:00.180Z,41.75
2022-08-07T05:08:59.593Z,41.90
2022-08-07T05:11:58.334Z,41.66
2022-08-07T05:14:52.665Z,42.13
2022-08-07T05:17:52.638Z,41.92
2022-08-07T05:20:11.888Z,41.55
2022-08-07T05:22:40.315Z,41.64
2022-08-07T05:25:11.536Z,41.62
2022-08-07T05:28:03.182Z,41.78
2022-08-07T05:30:32.796Z,41.76
2022-08-07T05:33:02.598Z,41.76
2022-08-07T05:35:33.800Z,41.40
2022-08-07T05:38:09.969Z,41.35
2022-08-07T05:40:37.875Z,41.88
2022-08-07T05:43:18.579Z,41.50
2022-08-07T05:45:47.565Z,41.38
2022-08-07T05:48:15.326Z,41.50
2022-08-07T05:50:43.634Z,41.24
2022-08-07T05:54:13.867Z,41.36
2022-08-07T05:56:03.030Z,41.02
2022-08-07T05:58:36.527Z,41.12
2022-08-07T06:01:08.385Z,41.07
2022-08-07T06:03:53.711Z,40.86
2022-08-07T06:06:24.399Z,40.94
2022-08-07T06:08:57.228Z,41.32
2022-08-07T06:11:25.121Z,40.86
2022-08-07T06:14:13.138Z,41.18
2022-08-07T06:16:40.199Z,41.01
2022-08-07T06:19:07.111Z,41.05
2022-08-07T06:22:15.515Z,40.96
2022-08-07T06:24:45.437Z,40.64
2022-08-07T06:27:08.024Z,40.94
2022-08-07T06:29:39.052Z,40.75
2022-08-07T06:32:06.259Z,41.08
2022-08-07T06:34:34.100Z,40.98
2022-08-07T06:37:02.887Z,40.62
2022-08-07T06:40:13.070Z,40.53
2022-08-07T06:42:32.857Z,40.71
2022-08-07T06:45:02.385Z,40.51
2022-08-07T06:47:48.263Z,40.61
2022-08-07T06:50:17.625Z,40.23
2022-08-07T06:52:52.941Z,41.30
2022-08-07T06:55:47.613Z,41.46
2022-08-07T06:58:14.279Z,41.21
2022-08-07T07:00:43.839Z,40.81
2022-08-07T07:03:14.607Z,40.62
2022-08-07T07:06:04.689Z,40.72
2022-08-07T07:08:33.212Z,40.45
2022-08-07T07:11:13.101Z,40.26
2022-08-07T07:13:58.600Z,40.60
2022-08-07T07:16:31.222Z,40.35
2022-08-07T07:19:04.131Z,40.69
2022-08-07T07:22:04.334Z,40.24
2022-08-07T07:24:26.244Z,40.10
2022-08-07T07:26:53.839Z,40.27
2022-08-07T07:29:39.463Z,40.22
2022-08-07T07:32:12.535Z,40.44
2022-08-07T07:34:48.676Z,40.35
2022-08-07T07:37:45.480Z,39.88
2022-08-07T07:40:14.541Z,39.87
2022-08-07T07:42:47.176Z,39.75
2022-08-07T07:45:18.899Z,39.73
2022-08-07T07:47:52.479Z,39.94
2022-08-07T07:50:34.813Z,39.31
2022-08-07T07:53:20.637Z,39.38
2022-08-07T07:55:54.635Z,39.17
2022-08-07T07:58:27.374Z,39.32
2022-08-07T08:00:54.926Z,39.58
2022-08-07T08:04:10.389Z,38.92
2022-08-07T08:06:11.648Z,39.04
2022-08-07T08:08:42.118Z,39.25
2022-08-07T08:11:16.526Z,38.75
2022-08-07T08:13:56.986Z,39.31
2022-08-07T08:16:38.650Z,39.32
2022-08-07T08:19:09.806Z,39.28
2022-08-07T08:22:13.160Z,39.16
2022-08-07T08:25:18.776Z,38.89
2022-08-07T08:27:55.998Z,39.11
2022-08-07T08:30:24.942Z,39.17
2022-08-07T08:32:58.562Z,38.84
2022-08-07T08:35:28.764Z,38.90
2022-08-07T08:38:01.128Z,38.93
2022-08-07T08:40:36.339Z,38.79
2022-08-07T08:43:12.642Z,39.13
2022-08-07T08:46:25.378Z,39.04
2022-08-07T08:49:13.588Z,38.46
2022-08-07T08:52:16.560Z,38.59
2022-08-07T08:55:01.159Z,38.80
2022-08-07T08:57:52.575Z,38.75
2022-08-07T09:00:21.031Z,38.90
2022-08-07T09:03:03.806Z,38.23
2022-08-07T09:06:03.364Z,38.77
2022-08-07T09:09:03.216Z,38.50
2022-08-07T09:11:53.263Z,38.71
2022-08-07T09:14:36.620Z,38.83
2022-08-07T09:17:07.971Z,38.43
2022-08-07T09:19:53.180Z,38.62
2022-08-07T09:24:32.713Z,38.66
2022-08-07T09:25:54.273Z,38.42
2022-08-07T09:30:05.874Z,37.90
2022-08-07T09:31:40.992Z,38.09
2022-08-07T09:34:54.058Z,38.20
2022-08-07T09:37:33.628Z,37.60
2022-08-07T09:40:50.202Z,37.11
2022-08-07T09:43:40.143Z,37.12
2022-08-07T09:47:51.123Z,36.82
2022-08-07T09:50:18.455Z,37.54
2022-08-07T09:52:53.996Z,37.35
2022-08-07T09:55:29.494Z,36.91
2022-08-07T09:58:32.322Z,35.26
2022-08-07T10:01:23.292Z,34.98
2022-08-07T10:04:32.555Z,35.31
2022-08-07T10:07:24.168Z,34.71
2022-08-07T10:10:21.885Z,35.13
2022-08-07T10:12:53.131Z,34.92
2022-08-07T10:15:44.675Z,34.56
2022-08-07T10:18:36.801Z,34.53
2022-08-07T10:22:15.896Z,35.06
2022-08-07T10:25:42.216Z,35.01
2022-08-07T10:28:31.196Z,35.14
2022-08-07T10:31:11.847Z,35.96
2022-08-07T10:34:15.147Z,35.32
2022-08-07T10:37:14.763Z,35.20
2022-08-07T10:40:21.922Z,35.36
2022-08-07T10:43:15.394Z,35.34
2022-08-07T10:45:57.751Z,35.29
2022-08-07T10:48:35.620Z,35.06
2022-08-07T10:51:39.113Z,35.29
2022-08-07T10:54:36.031Z,35.10
2022-08-07T10:57:04.571Z,35.23
2022-08-07T11:00:07.271Z,35.42
2022-08-07T11:02:54.698Z,35.47
2022-08-07T11:05:35.667Z,35.20
2022-08-07T11:08:39.031Z,35.75
2022-08-07T11:11:09.714Z,35.53
2022-08-07T11:14:43.411Z,35.37
2022-08-07T11:16:36.862Z,35.47
2022-08-07T11:19:27.279Z,35.44
2022-08-07T11:21:57.398Z,34.95
2022-08-07T11:25:06.580Z,35.27
2022-08-07T11:28:01.838Z,35.61
2022-08-07T11:30:41.487Z,35.33
2022-08-07T11:33:17.687Z,35.18
2022-08-07T11:36:10.468Z,35.23
2022-08-07T11:38:50.505Z,35.11
2022-08-07T11:41:29.700Z,34.92
2022-08-07T11:44:33.274Z,34.84
2022-08-07T11:47:20.247Z,35.13
2022-08-07T11:50:29.076Z,34.96
2022-08-07T11:53:22.064Z,34.99
2022-08-07T11:56:14.009Z,34.37
2022-08-07T11:59:22.072Z,34.08
2022-08-07T12:02:31.093Z,34.49
2022-08-07T12:05:28.698Z,34.22
2022-08-07T12:08:25.448Z,34.05
2022-08-07T12:11:20.500Z,34.22
2022-08-07T12:14:08.589Z,34.12
2022-08-07T12:16:46.938Z,33.91
2022-08-07T12:19:21.265Z,34.03
2022-08-07T12:22:36.171Z,33.88
2022-08-07T12:26:21.385Z,33.53
2022-08-07T12:28:37.381Z,33.96
2022-08-07T12:31:52.339Z,33.81
2022-08-07T12:34:21.538Z,33.40
2022-08-07T12:36:53.870Z,33.06
2022-08-07T12:39:43.888Z,33.26
2022-08-07T12:42:08.250Z,33.23
2022-08-07T12:44:35.154Z,33.22
2022-08-07T12:47:27.006Z,33.23
2022-08-07T12:50:33.971Z,33.08
2022-08-07T12:53:18.957Z,33.04
2022-08-07T12:56:32.107Z,32.78
2022-08-07T12:59:00.866Z,32.70
2022-08-07T13:01:34.014Z,32.67
2022-08-07T13:04:38.151Z,32.49
2022-08-07T13:07:28.170Z,32.80
2022-08-07T13:10:39.563Z,32.75
2022-08-07T13:13:47.235Z,32.65
2022-08-07T13:16:17.407Z,32.35
2022-08-07T13:19:11.377Z,32.46
2022-08-07T13:22:30.095Z,32.01
2022-08-07T13:25:24.057Z,32.21
2022-08-07T13:28:11.077Z,32.63
2022-08-07T13:30:53.391Z,32.80
2022-08-07T13:34:31.225Z,32.93
2022-08-07T13:36:53.434Z,33.05
2022-08-07T13:40:36.154Z,32.64
2022-08-07T13:42:40.766Z,32.56
2022-08-07T13:46:06.097Z,32.56
2022-08-07T13:48:05.510Z,32.77
2022-08-07T13:50:55.650Z,32.58
2022-08-07T13:53:59.719Z,32.48
2022-08-07T13:56:36.068Z,32.81
2022-08-07T13:59:27.132Z,32.57
2022-08-07T14:02:10.783Z,32.76
2022-08-07T14:04:50.133Z,33.38
2022-08-07T14:07:23.714Z,33.42
2022-08-07T14:10:15.020Z,33.83
2022-08-07T14:12:54.578Z,33.69
2022-08-07T14:15:39.555Z,33.95
2022-08-07T14:18:27.583Z,33.59
2022-08-07T14:22:03.426Z,33.69
2022-08-07T14:24:33.267Z,33.23
2022-08-07T14:28:11.455Z,33.16
2022-08-07T14:30:07.939Z,33.24
2022-08-07T14:32:46.962Z,33.49
2022-08-07T14:35:45.307Z,33.40
2022-08-07T14:38:30.230Z,33.61
2022-08-07T14:41:04.080Z,33.82
2022-08-07T14:43:55.594Z,33.43
2022-08-07T14:46:31.413Z,33.70
2022-08-07T14:49:55.657Z,33.59
2022-08-07T14:54:35.829Z,33.54
2022-08-07T14:57:11.239Z,33.71
2022-08-07T15:00:03.403Z,34.14
2022-08-07T15:02:34.917Z,33.83
2022-08-07T15:05:04.403Z,33.23
2022-08-07T15:07:51.252Z,33.01
2022-08-07T15:10:26.486Z,33.31
2022-08-07T15:12:58.439Z,32.78
2022-08-07T15:15:40.820Z,33.16
2022-08-07T15:18:14.368Z,32.75
2022-08-07T15:20:59.063Z,33.00
2022-08-07T15:26:22.564Z,33.16
2022-08-07T15:28:59.516Z,32.76
2022-08-07T15:31:58.053Z,32.97
2022-08-07T15:34:36.991Z,33.64
2022-08-07T15:37:06.577Z,33.46
2022-08-07T15:39:57.899Z,33.73
2022-08-07T15:42:48.252Z,33.95
2022-08-07T15:45:25.098Z,33.97
2022-08-07T15:48:30.628Z,33.74
2022-08-07T15:51:09.553Z,33.75
2022-08-07T15:53:53.148Z,33.61
2022-08-07T15:56:33.217Z,33.12
2022-08-07T15:59:03.189Z,33.40
2022-08-07T16:01:38.738Z,33.31
2022-08-07T16:04:15.365Z,33.39
2022-08-07T16:06:50.633Z,33.17
2022-08-07T16:09:22.778Z,33.48
2022-08-07T16:12:29.219Z,33.54
2022-08-07T16:15:54.979Z,33.51
2022-08-07T16:18:43.423Z,33.67
2022-08-07T16:21:53.762Z,33.65
2022-08-07T16:24:35.531Z,33.59
2022-08-07T16:27:40.670Z,33.51
2022-08-07T16:30:29.589Z,33.14
2022-08-07T16:34:01.859Z,33.36
2022-08-07T16:35:58.542Z,32.93
2022-08-07T16:39:01.100Z,33.41
2022-08-07T16:41:48.711Z,33.14
2022-08-07T16:44:47.308Z,33.26
2022-08-07T16:47:57.170Z,33.12
2022-08-07T16:50:37.016Z,33.67
2022-08-07T16:54:02.531Z,33.82
2022-08-07T16:56:27.530Z,33.50
2022-08-07T16:59:17.428Z,33.30
2022-08-07T17:02:51.371Z,33.51
2022-08-07T17:06:28.356Z,34.01
2022-08-07T17:09:09.646Z,33.97
2022-08-07T17:12:01.508Z,34.01
2022-08-07T17:14:34.579Z,34.31
2022-08-07T17:17:02.767Z,33.99
2022-08-07T17:20:02.908Z,33.90
2022-08-07T17:22:39.174Z,34.34
2022-08-07T17:25:20.205Z,34.06
2022-08-07T17:28:12.503Z,34.46
2022-08-07T17:30:58.551Z,34.46
2022-08-07T17:34:08.646Z,34.16
2022-08-07T17:36:20.351Z,34.19
2022-08-07T17:39:10.137Z,34.36
2022-08-07T17:42:04.157Z,34.20
2022-08-07T17:44:45.578Z,34.04
2022-08-07T17:47:46.139Z,34.07
2022-08-07T17:50:30.614Z,34.29
2022-08-07T17:53:01.118Z,34.27
2022-08-07T17:56:01.117Z,34.65
2022-08-07T17:58:54.533Z,34.71
2022-08-07T18:01:39.576Z,34.82
2022-08-07T18:04:16.151Z,34.98
2022-08-07T18:07:20.668Z,34.85
2022-08-07T18:10:07.478Z,34.82
2022-08-07T18:12:42.310Z,34.66
2022-08-07T18:15:12.731Z,34.59
2022-08-07T18:18:47.543Z,34.72
2022-08-07T18:21:12.802Z,34.71
2022-08-07T18:23:50.789Z,34.64
2022-08-07T18:26:34.019Z,35.01
2022-08-07T18:30:08.032Z,35.22
2022-08-07T18:32:29.449Z,34.98
2022-08-07T18:35:09.375Z,34.89
2022-08-07T18:38:55.757Z,35.05
2022-08-07T18:41:45.328Z,35.21
2022-08-07T18:44:19.500Z,35.27
2022-08-07T18:46:59.655Z,35.65
2022-08-07T18:50:33.150Z,35.44
2022-08-07T18:52:54.272Z,35.46
2022-08-07T18:55:43.345Z,35.70
2022-08-07T18:58:52.918Z,36.49
2022-08-07T19:02:19.091Z,36.16
2022-08-07T19:04:58.093Z,36.76
2022-08-07T19:08:05.412Z,36.54
2022-08-07T19:10:51.919Z,37.06
2022-08-07T19:13:27.499Z,36.48
2022-08-07T19:17:01.405Z,36.73
2022-08-07T19:19:13.241Z,36.94
2022-08-07T19:21:53.572Z,37.09
2022-08-07T19:24:50.127Z,37.44
2022-08-07T19:28:58.448Z,37.19
2022-08-07T19:31:05.190Z,37.27
2022-08-07T19:33:02.421Z,37.38
2022-08-07T19:35:37.555Z,37.60
2022-08-07T19:38:17.175Z,37.35
2022-08-07T19:40:49.959Z,37.36
2022-08-07T19:43:44.211Z,37.29
2022-08-07T19:46:11.087Z,37.66
2022-08-07T19:48:44.428Z,37.46
2022-08-07T19:51:51.044Z,37.44
2022-08-07T19:54:35.000Z,37.64
2022-08-07T19:57:59.904Z,37.77
2022-08-07T19:59:49.339Z,37.73
2022-08-07T20:02:30.020Z,37.38
2022-08-07T20:04:57.629Z,38.08
2022-08-07T20:07:47.825Z,38.13
2022-08-07T20:10:35.847Z,37.90
2022-08-07T20:13:23.945Z,37.91
2022-08-07T20:15:55.438Z,37.79
2022-08-07T20:18:33.421Z,38.17
2022-08-07T20:21:03.955Z,37.85
2022-08-07T20:24:02.403Z,38.11
2022-08-07T20:26:45.256Z,38.20
2022-08-07T20:29:49.210Z,37.81
2022-08-07T20:32:06.186Z,38.67
2022-08-07T20:34:50.701Z,37.94
2022-08-07T20:37:33.728Z,37.91
2022-08-07T20:40:04.979Z,38.25
2022-08-07T20:42:56.155Z,38.46
2022-08-07T20:45:33.108Z,38.16
2022-08-07T20:48:11.938Z,38.64
2022-08-07T20:50:57.089Z,38.58
2022-08-07T20:54:02.111Z,38.82
2022-08-07T20:56:46.164Z,38.79
2022-08-07T21:00:04.499Z,38.65
2022-08-07T21:02:23.191Z,38.74
2022-08-07T21:04:55.115Z,38.82
2022-08-07T21:07:24.110Z,38.91
2022-08-07T21:10:00.464Z,38.84
2022-08-07T21:12:31.007Z,38.75
2022-08-07T21:14:59.579Z,39.01
2022-08-07T21:18:04.070Z,39.21
2022-08-07T21:20:19.071Z,38.77
2022-08-07T21:22:58.328Z,38.91
2022-08-07T21:25:44.100Z,39.26
2022-08-07T21:28:47.985Z,39.28
2022-08-07T21:32:41.960Z,39.00
2022-08-07T21:34:34.143Z,39.54
2022-08-07T21:37:07.984Z,39.28
2022-08-07T21:39:51.548Z,39.57
2022-08-07T21:42:48.662Z,39.24
2022-08-07T21:46:08.986Z,39.28
2022-08-07T21:48:28.743Z,39.52
2022-08-07T21:51:20.025Z,39.42
2022-08-07T21:53:54.010Z,39.34
2022-08-07T21:56:46.971Z,39.76
2022-08-07T21:59:22.528Z,39.76
2022-08-07T22:02:10.786Z,39.37
2022-08-07T22:04:53.652Z,39.35
2022-08-07T22:07:31.426Z,39.63
2022-08-07T22:10:04.234Z,39.13
2022-08-07T22:12:45.190Z,39.36
2022-08-07T22:16:42.141Z,39.40
2022-08-07T22:18:38.942Z,39.79
2022-08-07T22:21:19.329Z,39.51
2022-08-07T22:23:56.878Z,39.64
2022-08-07T22:26:34.622Z,39.63
2022-08-07T22:29:17.737Z,39.77
2022-08-07T22:32:08.747Z,40.16
2022-08-07T22:34:40.950Z,40.09
2022-08-07T22:38:04.285Z,39.79
2022-08-07T22:40:55.106Z,39.68
2022-08-07T22:43:48.155Z,40.01
2022-08-07T22:47:03.905Z,40.12
2022-08-07T22:49:23.305Z,39.99
2022-08-07T22:51:51.982Z,39.70
2022-08-07T22:54:33.914Z,40.16
2022-08-07T22:57:29.093Z,39.66
2022-08-07T23:00:18.267Z,39.73
2022-08-07T23:03:09.448Z,40.15
2022-08-07T23:06:15.662Z,39.79
2022-08-07T23:08:56.009Z,40.22
2022-08-07T23:11:46.943Z,40.25
2022-08-07T23:14:20.401Z,40.02
2022-08-07T23:17:20.134Z,40.00
2022-08-07T23:20:21.354Z,40.35
2022-08-07T23:23:11.174Z,39.96
2022-08-07T23:25:56.635Z,40.05
2022-08-07T23:28:53.324Z,39.95
2022-08-07T23:32:49.662Z,40.23
2022-08-07T23:34:37.283Z,40.01
2022-08-07T23:37:20.118Z,40.36
2022-08-07T23:40:08.281Z,40.51
2022-08-07T23:43:01.240Z,40.16
2022-08-07T23:46:02.676Z,40.25
2022-08-07T23:48:56.160Z,40.32
2022-08-07T23:52:58.136Z,40.28
2022-08-07T23:54:44.607Z,40.03
2022-08-07T23:57:34.894Z,40.08
